createdAt,value
2016-10-01T00:00:03.868Z,1006.78
2016-10-01T00:00:44.402Z,1006.78
2016-10-01T00:01:24.946Z,1006.71
2016-10-01T00:02:05.491Z,1006.71
2016-10-01T00:02:46.036Z,1006.69
2016-10-01T00:03:26.580Z,1006.64
2016-10-01T00:04:07.127Z,1006.65
2016-10-01T00:04:47.669Z,1006.64
2016-10-01T00:05:28.202Z,1006.61
2016-10-01T00:06:08.750Z,1006.59
2016-10-01T00:06:49.293Z,1006.57
2016-10-01T00:07:29.839Z,1006.56
2016-10-01T00:08:10.380Z,1006.54
2016-10-01T00:08:50.922Z,1006.52
2016-10-01T00:09:31.465Z,1006.54
2016-10-01T00:10:12.009Z,1006.53
2016-10-01T00:10:52.553Z,1006.48
2016-10-01T00:11:33.099Z,1006.49
2016-10-01T00:12:13.644Z,1006.44
2016-10-01T00:12:54.186Z,1006.42
2016-10-01T00:13:34.732Z,1006.41
2016-10-01T00:14:15.277Z,1006.4
2016-10-01T00:14:55.819Z,1006.36
2016-10-01T00:15:36.365Z,1006.35
2016-10-01T00:16:16.904Z,1006.37
2016-10-01T00:16:57.448Z,1006.3
2016-10-01T00:17:37.984Z,1006.34
2016-10-01T00:18:18.526Z,1006.36
2016-10-01T00:18:59.071Z,1006.29
2016-10-01T00:19:39.617Z,1006.3
2016-10-01T00:20:20.160Z,1006.32
2016-10-01T00:21:00.707Z,1006.33
2016-10-01T00:21:41.255Z,1006.34
2016-10-01T00:22:21.798Z,1006.33
2016-10-01T00:23:02.345Z,1006.36
2016-10-01T00:23:42.888Z,1006.38
2016-10-01T00:24:23.431Z,1006.38
2016-10-01T00:25:03.965Z,1006.36
2016-10-01T00:25:44.507Z,1006.39
2016-10-01T00:26:25.054Z,1006.39
2016-10-01T00:27:05.591Z,1006.37
2016-10-01T00:27:46.133Z,1006.4
2016-10-01T00:28:26.676Z,1006.36
2016-10-01T00:29:07.227Z,1006.38
2016-10-01T00:29:47.765Z,1006.34
2016-10-01T00:30:28.303Z,1006.35
2016-10-01T00:31:08.846Z,1006.35
2016-10-01T00:31:49.392Z,1006.33
2016-10-01T00:32:29.932Z,1006.32
2016-10-01T00:33:10.474Z,1006.26
2016-10-01T00:33:51.019Z,1006.29
2016-10-01T00:34:31.562Z,1006.27
2016-10-01T00:35:12.099Z,1006.26
2016-10-01T00:35:52.648Z,1006.25
2016-10-01T00:36:33.190Z,1006.24
2016-10-01T00:37:13.734Z,1006.22
2016-10-01T00:37:54.282Z,1006.24
2016-10-01T00:38:34.825Z,1006.22
2016-10-01T00:39:15.368Z,1006.25
2016-10-01T00:39:55.912Z,1006.3
2016-10-01T00:40:36.459Z,1006.24
2016-10-01T00:41:17.001Z,1006.23
2016-10-01T00:41:57.547Z,1006.24
2016-10-01T00:42:38.084Z,1006.26
2016-10-01T00:43:18.626Z,1006.27
2016-10-01T00:43:59.164Z,1006.26
2016-10-01T00:44:39.713Z,1006.27
2016-10-01T00:45:20.256Z,1006.29
2016-10-01T00:46:00.795Z,1006.27
2016-10-01T00:46:41.334Z,1006.28
2016-10-01T00:47:21.877Z,1006.3
2016-10-01T00:48:02.424Z,1006.34
2016-10-01T00:48:42.967Z,1006.34
2016-10-01T00:49:23.512Z,1006.32
2016-10-01T00:50:04.058Z,1006.34
2016-10-01T00:50:44.600Z,1006.4
2016-10-01T00:51:25.132Z,1006.37
2016-10-01T00:52:05.668Z,1006.36
2016-10-01T00:52:46.206Z,1006.41
2016-10-01T00:53:26.751Z,1006.4
2016-10-01T00:54:07.300Z,1006.38
2016-10-01T00:54:47.842Z,1006.36
2016-10-01T00:55:28.393Z,1006.37
2016-10-01T00:56:08.930Z,1006.33
2016-10-01T00:56:49.477Z,1006.31
2016-10-01T00:57:30.005Z,1006.29
2016-10-01T00:58:10.534Z,1006.28
2016-10-01T00:58:51.075Z,1006.3
2016-10-01T00:59:31.612Z,1006.29
2016-10-01T01:00:12.151Z,1006.34
2016-10-01T01:00:52.696Z,1006.31
2016-10-01T01:01:33.240Z,1006.32
2016-10-01T01:02:13.785Z,1006.36
2016-10-01T01:02:54.331Z,1006.34
2016-10-01T01:03:34.874Z,1006.33
2016-10-01T01:04:15.411Z,1006.31
2016-10-01T01:04:55.950Z,1006.3
2016-10-01T01:05:36.477Z,1006.31
2016-10-01T01:06:17.019Z,1006.29
2016-10-01T01:06:57.564Z,1006.3
2016-10-01T01:07:38.102Z,1006.29
2016-10-01T01:08:18.650Z,1006.26
2016-10-01T01:08:59.189Z,1006.29
2016-10-01T01:09:39.738Z,1006.26
2016-10-01T01:10:20.278Z,1006.28
2016-10-01T01:11:00.809Z,1006.27
2016-10-01T01:11:41.359Z,1006.23
2016-10-01T01:12:21.889Z,1006.24
2016-10-01T01:13:02.427Z,1006.25
2016-10-01T01:13:42.968Z,1006.27
2016-10-01T01:14:23.515Z,1006.26
2016-10-01T01:15:04.057Z,1006.23
2016-10-01T01:15:44.599Z,1006.25
2016-10-01T01:16:25.148Z,1006.26
2016-10-01T01:17:05.668Z,1006.27
2016-10-01T01:17:46.203Z,1006.24
2016-10-01T01:18:26.742Z,1006.24
2016-10-01T01:19:07.280Z,1006.25
2016-10-01T01:19:47.819Z,1006.21
2016-10-01T01:20:28.367Z,1006.19
2016-10-01T01:21:08.901Z,1006.17
2016-10-01T01:21:49.445Z,1006.2
2016-10-01T01:22:29.974Z,1006.18
2016-10-01T01:23:10.506Z,1006.17
2016-10-01T01:23:51.061Z,1006.19
2016-10-01T01:24:31.581Z,1006.19
2016-10-01T01:25:12.128Z,1006.13
2016-10-01T01:25:52.661Z,1006.12
2016-10-01T01:26:33.189Z,1006.1
2016-10-01T01:27:13.699Z,1006.09
2016-10-01T01:27:54.229Z,1006.09
2016-10-01T01:28:34.782Z,1006.06
2016-10-01T01:29:15.297Z,1006.03
2016-10-01T01:29:55.846Z,1006.03
2016-10-01T01:30:36.369Z,1005.97
2016-10-01T01:31:16.893Z,1005.99
2016-10-01T01:31:57.432Z,1006.02
2016-10-01T01:32:37.962Z,1006.02
2016-10-01T01:33:18.490Z,1006
2016-10-01T01:33:59.035Z,1005.98
2016-10-01T01:34:39.573Z,1005.99
2016-10-01T01:35:20.113Z,1005.93
2016-10-01T01:36:00.645Z,1005.94
2016-10-01T01:36:41.182Z,1005.89
2016-10-01T01:37:21.723Z,1005.87
2016-10-01T01:38:02.262Z,1005.84
2016-10-01T01:38:42.795Z,1005.79
2016-10-01T01:39:23.313Z,1005.77
2016-10-01T01:40:03.858Z,1005.75
2016-10-01T01:40:44.390Z,1005.71
2016-10-01T01:41:24.939Z,1005.71
2016-10-01T01:42:05.485Z,1005.7
2016-10-01T01:42:46.028Z,1005.69
2016-10-01T01:43:26.567Z,1005.67
2016-10-01T01:44:07.072Z,1005.68
2016-10-01T01:44:47.596Z,1005.68
2016-10-01T01:45:28.136Z,1005.66
2016-10-01T01:46:08.668Z,1005.66
2016-10-01T01:46:49.174Z,1005.63
2016-10-01T01:47:29.707Z,1005.62
2016-10-01T01:48:10.253Z,1005.64
2016-10-01T01:48:50.774Z,1005.58
2016-10-01T01:49:31.316Z,1005.59
2016-10-01T01:50:11.855Z,1005.57
2016-10-01T01:50:52.398Z,1005.56
2016-10-01T01:51:32.913Z,1005.57
2016-10-01T01:52:13.463Z,1005.57
2016-10-01T01:52:53.999Z,1005.58
2016-10-01T01:53:34.548Z,1005.61
2016-10-01T01:54:15.085Z,1005.61
2016-10-01T01:54:55.620Z,1005.62
2016-10-01T01:55:36.172Z,1005.62
2016-10-01T01:56:16.692Z,1005.63
2016-10-01T01:56:57.221Z,1005.63
2016-10-01T01:57:37.730Z,1005.62
2016-10-01T01:58:18.274Z,1005.62
2016-10-01T01:58:58.799Z,1005.61
2016-10-01T01:59:39.332Z,1005.59
2016-10-01T02:00:19.849Z,1005.57
2016-10-01T02:01:00.383Z,1005.57
2016-10-01T02:01:40.935Z,1005.53
2016-10-01T02:02:21.452Z,1005.51
2016-10-01T02:03:01.970Z,1005.49
2016-10-01T02:03:42.499Z,1005.47
2016-10-01T02:04:23.053Z,1005.43
2016-10-01T02:05:03.609Z,1005.44
2016-10-01T02:05:44.165Z,1005.42
2016-10-01T02:06:24.703Z,1005.41
2016-10-01T02:07:05.228Z,1005.39
2016-10-01T02:07:45.773Z,1005.41
2016-10-01T02:08:26.286Z,1005.37
2016-10-01T02:09:06.839Z,1005.38
2016-10-01T02:09:47.358Z,1005.35
2016-10-01T02:10:27.898Z,1005.38
2016-10-01T02:11:08.432Z,1005.35
2016-10-01T02:11:48.973Z,1005.34
2016-10-01T02:12:29.501Z,1005.32
2016-10-01T02:13:10.044Z,1005.31
2016-10-01T02:13:50.571Z,1005.3
2016-10-01T02:14:31.115Z,1005.27
2016-10-01T02:15:11.650Z,1005.23
2016-10-01T02:15:52.186Z,1005.21
2016-10-01T02:16:32.728Z,1005.19
2016-10-01T02:17:13.255Z,1005.19
2016-10-01T02:17:53.809Z,1005.16
2016-10-01T02:18:34.317Z,1005.15
2016-10-01T02:19:14.847Z,1005.11
2016-10-01T02:19:55.369Z,1005.1
2016-10-01T02:20:35.905Z,1005.1
2016-10-01T02:21:16.432Z,1005
2016-10-01T02:21:56.970Z,1005
2016-10-01T02:22:37.516Z,1004.95
2016-10-01T02:23:18.041Z,1004.93
2016-10-01T02:23:58.562Z,1004.91
2016-10-01T02:24:39.100Z,1004.89
2016-10-01T02:25:19.622Z,1004.9
2016-10-01T02:26:00.169Z,1004.89
2016-10-01T02:26:40.703Z,1004.89
2016-10-01T02:27:21.248Z,1004.88
2016-10-01T02:28:01.791Z,1004.9
2016-10-01T02:28:42.344Z,1004.92
2016-10-01T02:29:22.856Z,1004.91
2016-10-01T02:30:03.381Z,1004.93
2016-10-01T02:30:43.925Z,1004.94
2016-10-01T02:31:24.464Z,1004.98
2016-10-01T02:32:04.979Z,1004.99
2016-10-01T02:32:45.513Z,1005.05
2016-10-01T02:33:26.041Z,1005.09
2016-10-01T02:34:06.576Z,1005.1
2016-10-01T02:34:47.126Z,1005.11
2016-10-01T02:35:27.642Z,1005.14
2016-10-01T02:36:08.167Z,1005.1
2016-10-01T02:36:48.696Z,1005.05
2016-10-01T02:37:29.225Z,1005.07
2016-10-01T02:38:09.797Z,1005.02
2016-10-01T02:38:50.329Z,1004.99
2016-10-01T02:39:30.870Z,1005
2016-10-01T02:40:11.420Z,1004.96
2016-10-01T02:40:51.966Z,1004.97
2016-10-01T02:41:32.506Z,1004.99
2016-10-01T02:42:13.032Z,1005.01
2016-10-01T02:42:53.553Z,1005
2016-10-01T02:43:34.110Z,1004.99
2016-10-01T02:44:14.664Z,1004.96
2016-10-01T02:44:55.173Z,1004.94
2016-10-01T02:45:35.701Z,1004.94
2016-10-01T02:46:16.228Z,1004.94
2016-10-01T02:46:56.757Z,1004.94
2016-10-01T02:47:37.285Z,1004.92
2016-10-01T02:48:17.820Z,1004.92
2016-10-01T02:48:58.359Z,1004.9
2016-10-01T02:49:38.892Z,1004.89
2016-10-01T02:50:19.417Z,1004.9
2016-10-01T02:50:59.940Z,1004.86
2016-10-01T02:51:40.492Z,1004.91
2016-10-01T02:52:21.038Z,1004.87
2016-10-01T02:53:01.573Z,1004.87
2016-10-01T02:53:42.102Z,1004.9
2016-10-01T02:54:22.641Z,1004.84
2016-10-01T02:55:03.179Z,1004.82
2016-10-01T02:55:43.712Z,1004.82
2016-10-01T02:56:24.246Z,1004.75
2016-10-01T02:57:04.784Z,1004.77
2016-10-01T02:57:45.333Z,1004.75
2016-10-01T02:58:25.873Z,1004.73
2016-10-01T02:59:06.420Z,1004.72
2016-10-01T02:59:46.972Z,1004.76
2016-10-01T03:00:27.477Z,1004.73
2016-10-01T03:01:08.032Z,1004.73
2016-10-01T03:01:48.572Z,1004.72
2016-10-01T03:02:29.090Z,1004.68
2016-10-01T03:03:09.643Z,1004.66
2016-10-01T03:03:50.189Z,1004.61
2016-10-01T03:04:30.741Z,1004.59
2016-10-01T03:05:11.286Z,1004.59
2016-10-01T03:05:51.821Z,1004.51
2016-10-01T03:06:32.369Z,1004.54
2016-10-01T03:07:12.911Z,1004.52
2016-10-01T03:07:53.435Z,1004.51
2016-10-01T03:08:33.973Z,1004.48
2016-10-01T03:09:14.511Z,1004.48
2016-10-01T03:09:55.059Z,1004.48
2016-10-01T03:10:35.580Z,1004.49
2016-10-01T03:11:16.113Z,1004.51
2016-10-01T03:11:56.647Z,1004.49
2016-10-01T03:12:37.189Z,1004.5
2016-10-01T03:13:17.744Z,1004.5
2016-10-01T03:13:58.262Z,1004.53
2016-10-01T03:14:38.797Z,1004.52
2016-10-01T03:15:19.331Z,1004.54
2016-10-01T03:15:59.864Z,1004.53
2016-10-01T03:16:40.382Z,1004.52
2016-10-01T03:17:20.913Z,1004.52
2016-10-01T03:18:01.459Z,1004.47
2016-10-01T03:18:42.002Z,1004.5
2016-10-01T03:19:22.561Z,1004.5
2016-10-01T03:20:03.085Z,1004.46
2016-10-01T03:20:43.592Z,1004.45
2016-10-01T03:21:24.128Z,1004.5
2016-10-01T03:22:04.685Z,1004.47
2016-10-01T03:22:45.216Z,1004.43
2016-10-01T03:23:25.764Z,1004.44
2016-10-01T03:24:06.302Z,1004.45
2016-10-01T03:24:46.853Z,1004.45
2016-10-01T03:25:27.403Z,1004.41
2016-10-01T03:26:07.943Z,1004.48
2016-10-01T03:26:48.495Z,1004.44
2016-10-01T03:27:29.029Z,1004.41
2016-10-01T03:28:09.554Z,1004.44
2016-10-01T03:28:50.094Z,1004.43
2016-10-01T03:29:30.615Z,1004.44
2016-10-01T03:30:11.171Z,1004.45
2016-10-01T03:30:51.690Z,1004.45
2016-10-01T03:31:32.215Z,1004.46
2016-10-01T03:32:12.750Z,1004.44
2016-10-01T03:32:53.271Z,1004.45
2016-10-01T03:33:33.802Z,1004.47
2016-10-01T03:34:14.316Z,1004.42
2016-10-01T03:34:54.842Z,1004.44
2016-10-01T03:35:35.380Z,1004.37
2016-10-01T03:36:15.924Z,1004.33
2016-10-01T03:36:56.462Z,1004.32
2016-10-01T03:37:37.023Z,1004.3
2016-10-01T03:38:17.589Z,1004.25
2016-10-01T03:38:58.125Z,1004.23
2016-10-01T03:39:38.658Z,1004.22
2016-10-01T03:40:19.207Z,1004.16
2016-10-01T03:40:59.719Z,1004.18
2016-10-01T03:41:40.264Z,1004.14
2016-10-01T03:42:20.787Z,1004.19
2016-10-01T03:43:01.335Z,1004.1
2016-10-01T03:43:41.881Z,1004.07
2016-10-01T03:44:22.421Z,1004.06
2016-10-01T03:45:02.940Z,1004.04
2016-10-01T03:45:43.481Z,1004.02
2016-10-01T03:46:24.012Z,1003.99
2016-10-01T03:47:04.542Z,1003.99
2016-10-01T03:47:45.087Z,1003.98
2016-10-01T03:48:25.630Z,1003.95
2016-10-01T03:49:06.182Z,1003.97
2016-10-01T03:49:46.740Z,1003.91
2016-10-01T03:50:27.291Z,1003.92
2016-10-01T03:51:07.828Z,1003.89
2016-10-01T03:51:48.374Z,1003.9
2016-10-01T03:52:28.943Z,1003.86
2016-10-01T03:53:09.461Z,1003.84
2016-10-01T03:53:50.001Z,1003.87
2016-10-01T03:54:30.569Z,1003.85
2016-10-01T03:55:11.098Z,1003.9
2016-10-01T03:55:51.621Z,1003.86
2016-10-01T03:56:32.158Z,1003.84
2016-10-01T03:57:12.691Z,1003.89
2016-10-01T03:57:53.244Z,1003.91
2016-10-01T03:58:33.784Z,1003.92
2016-10-01T03:59:14.334Z,1003.96
2016-10-01T03:59:54.870Z,1003.97
2016-10-01T04:00:35.727Z,1003.99
2016-10-01T04:01:16.268Z,1003.97
2016-10-01T04:01:56.814Z,1004.07
2016-10-01T04:02:37.344Z,1004.01
2016-10-01T04:03:17.881Z,1003.96
2016-10-01T04:03:58.413Z,1003.98
2016-10-01T04:04:38.940Z,1003.96
2016-10-01T04:05:19.480Z,1003.94
2016-10-01T04:05:59.998Z,1003.94
2016-10-01T04:06:40.527Z,1003.94
2016-10-01T04:07:21.061Z,1003.93
2016-10-01T04:08:01.616Z,1003.92
2016-10-01T04:08:42.160Z,1003.96
2016-10-01T04:09:22.698Z,1003.96
2016-10-01T04:10:03.229Z,1003.97
2016-10-01T04:10:43.772Z,1004
2016-10-01T04:11:24.299Z,1003.97
2016-10-01T04:12:04.832Z,1004
2016-10-01T04:12:45.368Z,1004.01
2016-10-01T04:13:25.914Z,1004.03
2016-10-01T04:14:06.474Z,1004.04
2016-10-01T04:14:47.018Z,1004.11
2016-10-01T04:15:27.557Z,1004.12
2016-10-01T04:16:08.103Z,1004.13
2016-10-01T04:16:48.648Z,1004.16
2016-10-01T04:17:29.191Z,1004.18
2016-10-01T04:18:09.742Z,1004.17
2016-10-01T04:18:50.285Z,1004.21
2016-10-01T04:19:30.843Z,1004.22
2016-10-01T04:20:11.396Z,1004.22
2016-10-01T04:20:51.937Z,1004.25
2016-10-01T04:21:32.516Z,1004.24
2016-10-01T04:22:13.066Z,1004.24
2016-10-01T04:22:53.601Z,1004.2
2016-10-01T04:23:34.153Z,1004.21
2016-10-01T04:24:14.680Z,1004.18
2016-10-01T04:24:55.219Z,1004.17
2016-10-01T04:25:35.761Z,1004.18
2016-10-01T04:26:16.301Z,1004.16
2016-10-01T04:26:56.836Z,1004.16
2016-10-01T04:27:37.380Z,1004.14
2016-10-01T04:28:17.928Z,1004.1
2016-10-01T04:28:58.470Z,1004.13
2016-10-01T04:29:39.008Z,1004.15
2016-10-01T04:30:19.559Z,1004.15
2016-10-01T04:31:00.097Z,1004.13
2016-10-01T04:31:40.606Z,1004.15
2016-10-01T04:32:21.153Z,1004.16
2016-10-01T04:33:01.700Z,1004.17
2016-10-01T04:33:42.239Z,1004.16
2016-10-01T04:34:22.783Z,1004.17
2016-10-01T04:35:03.324Z,1004.15
2016-10-01T04:35:43.874Z,1004.14
2016-10-01T04:36:24.417Z,1004.1
2016-10-01T04:37:04.965Z,1004.11
2016-10-01T04:37:45.481Z,1004.12
2016-10-01T04:38:26.024Z,1004.12
2016-10-01T04:39:06.571Z,1004.1
2016-10-01T04:39:47.107Z,1004.12
2016-10-01T04:40:27.637Z,1004.13
2016-10-01T04:41:08.179Z,1004.12
2016-10-01T04:41:48.728Z,1004.12
2016-10-01T04:42:29.264Z,1004.12
2016-10-01T04:43:09.809Z,1004.08
2016-10-01T04:43:50.345Z,1004.11
2016-10-01T04:44:30.900Z,1004.11
2016-10-01T04:45:11.441Z,1004.08
2016-10-01T04:45:51.968Z,1004.09
2016-10-01T04:46:32.497Z,1004.07
2016-10-01T04:47:13.033Z,1004.05
2016-10-01T04:47:53.575Z,1004.07
2016-10-01T04:48:34.135Z,1004.07
2016-10-01T04:49:14.688Z,1004
2016-10-01T04:49:55.219Z,1004.03
2016-10-01T04:50:35.771Z,1004.01
2016-10-01T04:54:09.799Z,1004.06
2016-10-01T04:54:53.344Z,1004.04
2016-10-01T04:55:33.870Z,1004
2016-10-01T04:56:14.362Z,1004.09
2016-10-01T04:56:54.859Z,1004.09
2016-10-01T04:57:35.351Z,1004.1
2016-10-01T04:58:15.896Z,1004.1
2016-10-01T04:58:56.366Z,1004.08
2016-10-01T04:59:36.863Z,1004.1
2016-10-01T05:00:17.383Z,1004.11
2016-10-01T05:00:57.923Z,1004.07
2016-10-01T05:01:38.447Z,1004.12
2016-10-01T05:02:18.985Z,1004.07
2016-10-01T05:02:59.478Z,1004.09
2016-10-01T05:03:40.003Z,1004.06
2016-10-01T05:04:20.517Z,1004.12
2016-10-01T05:05:01.023Z,1004.13
2016-10-01T05:05:41.543Z,1004.14
2016-10-01T05:06:22.070Z,1004.19
2016-10-01T05:07:02.590Z,1004.16
2016-10-01T05:07:43.092Z,1004.13
2016-10-01T05:08:23.608Z,1004.13
2016-10-01T05:09:04.120Z,1004.18
2016-10-01T05:09:44.629Z,1004.15
2016-10-01T05:10:25.178Z,1004.15
2016-10-01T05:11:05.679Z,1004.08
2016-10-01T05:11:46.213Z,1004.09
2016-10-01T05:12:26.743Z,1004.05
2016-10-01T05:13:07.255Z,1004.03
2016-10-01T05:13:47.785Z,1004
2016-10-01T05:14:28.315Z,1004.03
2016-10-01T05:15:08.821Z,1003.98
2016-10-01T05:15:49.361Z,1004.03
2016-10-01T05:16:29.907Z,1004.02
2016-10-01T05:17:10.396Z,1003.99
2016-10-01T05:17:50.901Z,1003.99
2016-10-01T05:18:31.446Z,1004.03
2016-10-01T05:19:11.960Z,1003.96
2016-10-01T05:19:52.490Z,1003.95
2016-10-01T05:20:32.967Z,1003.93
2016-10-01T05:21:13.478Z,1003.93
2016-10-01T05:21:53.987Z,1003.96
2016-10-01T05:22:34.499Z,1003.98
2016-10-01T05:23:15.028Z,1003.95
2016-10-01T05:23:55.542Z,1003.96
2016-10-01T05:24:36.036Z,1003.89
2016-10-01T05:25:16.525Z,1003.91
2016-10-01T05:25:57.018Z,1003.83
2016-10-01T05:26:37.533Z,1003.81
2016-10-01T05:27:18.058Z,1003.79
2016-10-01T05:27:58.565Z,1003.84
2016-10-01T05:28:39.084Z,1003.73
2016-10-01T05:29:19.571Z,1003.75
2016-10-01T05:30:00.066Z,1003.72
2016-10-01T05:30:40.565Z,1003.7
2016-10-01T05:31:21.056Z,1003.72
2016-10-01T05:32:01.548Z,1003.73
2016-10-01T05:32:42.087Z,1003.74
2016-10-01T05:34:56.387Z,1003.78
2016-10-01T05:35:36.752Z,1003.76
2016-10-01T05:36:17.278Z,1003.8
2016-10-01T05:36:57.733Z,1003.8
2016-10-01T05:37:38.235Z,1003.79
2016-10-01T05:38:18.717Z,1003.78
2016-10-01T05:38:59.252Z,1003.81
2016-10-01T05:39:39.704Z,1003.76
2016-10-01T05:40:20.198Z,1003.79
2016-10-01T05:41:00.731Z,1003.82
2016-10-01T05:41:41.186Z,1003.81
2016-10-01T05:42:21.671Z,1003.81
2016-10-01T05:43:02.173Z,1003.82
2016-10-01T05:43:42.668Z,1003.82
2016-10-01T05:44:23.166Z,1003.86
2016-10-01T05:45:03.652Z,1003.86
2016-10-01T05:45:44.183Z,1003.88
2016-10-01T05:46:24.698Z,1003.88
2016-10-01T05:47:05.204Z,1003.86
2016-10-01T05:47:45.679Z,1003.92
2016-10-01T05:48:26.171Z,1003.87
2016-10-01T05:49:06.709Z,1003.91
2016-10-01T05:49:47.217Z,1003.9
2016-10-01T05:50:27.731Z,1003.88
2016-10-01T05:51:08.346Z,1003.93
2016-10-01T05:51:48.847Z,1003.96
2016-10-01T05:52:29.324Z,1003.93
2016-10-01T05:53:09.855Z,1003.95
2016-10-01T05:53:50.314Z,1003.96
2016-10-01T05:54:30.852Z,1003.96
2016-10-01T05:55:11.399Z,1004
2016-10-01T05:55:51.884Z,1003.97
2016-10-01T05:56:32.371Z,1003.96
2016-10-01T05:57:12.894Z,1003.94
2016-10-01T05:57:53.373Z,1003.96
2016-10-01T05:58:33.862Z,1003.93
2016-10-01T05:59:14.360Z,1003.96
2016-10-01T05:59:54.898Z,1003.94
2016-10-01T06:00:35.397Z,1003.94
2016-10-01T06:01:15.962Z,1003.91
2016-10-01T06:01:56.455Z,1003.94
2016-10-01T06:02:36.992Z,1003.95
2016-10-01T06:03:17.485Z,1003.93
2016-10-01T06:03:58.021Z,1003.96
2016-10-01T06:04:38.462Z,1003.9
2016-10-01T06:05:18.989Z,1003.91
2016-10-01T06:05:59.502Z,1003.9
2016-10-01T06:06:40.036Z,1003.91
2016-10-01T06:07:20.532Z,1003.89
2016-10-01T06:08:01.078Z,1003.87
2016-10-01T06:08:41.629Z,1003.88
2016-10-01T06:09:22.176Z,1003.87
2016-10-01T06:10:02.700Z,1003.84
2016-10-01T06:10:43.215Z,1003.8
2016-10-01T06:11:23.790Z,1003.85
2016-10-01T06:12:04.407Z,1003.85
2016-10-01T06:12:44.949Z,1003.87
2016-10-01T06:13:25.424Z,1003.86
2016-10-01T06:14:05.937Z,1003.9
2016-10-01T06:14:46.472Z,1003.81
2016-10-01T06:15:27.667Z,1003.86
2016-10-01T06:16:08.214Z,1003.86
2016-10-01T06:16:48.811Z,1003.86
2016-10-01T06:17:29.356Z,1003.86
2016-10-01T06:18:09.882Z,1003.83
2016-10-01T06:18:50.742Z,1003.81
2016-10-01T06:19:31.416Z,1003.87
2016-10-01T06:20:12.038Z,1003.84
2016-10-01T06:20:52.586Z,1003.8
2016-10-01T06:21:33.362Z,1003.85
2016-10-01T06:22:13.804Z,1003.76
2016-10-01T06:22:54.257Z,1003.79
2016-10-01T06:23:34.886Z,1003.81
2016-10-01T06:24:15.428Z,1003.75
2016-10-01T06:24:56.026Z,1003.8
2016-10-01T06:25:36.581Z,1003.77
2016-10-01T06:26:17.191Z,1003.77
2016-10-01T06:26:57.799Z,1003.77
2016-10-01T06:27:38.843Z,1003.81
2016-10-01T06:28:20.421Z,1003.81
2016-10-01T06:29:01.621Z,1003.86
2016-10-01T06:29:42.186Z,1003.82
2016-10-01T06:30:22.780Z,1003.82
2016-10-01T06:31:03.319Z,1003.82
2016-10-01T06:31:43.843Z,1003.83
2016-10-01T06:32:24.442Z,1003.79
2016-10-01T06:33:05.240Z,1003.8
2016-10-01T06:33:45.767Z,1003.78
2016-10-01T06:34:26.203Z,1003.78
2016-10-01T06:35:06.731Z,1003.74
2016-10-01T06:35:47.283Z,1003.74
2016-10-01T06:36:27.815Z,1003.74
2016-10-01T06:37:08.335Z,1003.74
2016-10-01T06:37:48.874Z,1003.74
2016-10-01T06:38:29.412Z,1003.68
2016-10-01T06:39:10.036Z,1003.72
2016-10-01T06:44:37.327Z,1003.75
2016-10-01T06:45:18.436Z,1003.72
2016-10-01T06:45:59.442Z,1003.73
2016-10-01T06:46:40.447Z,1003.72
2016-10-01T06:47:23.272Z,1003.75
2016-10-01T06:48:04.570Z,1003.7
2016-10-01T06:48:45.510Z,1003.71
2016-10-01T06:52:15.445Z,1003.75
2016-10-01T06:52:56.158Z,1003.72
2016-10-01T06:53:37.230Z,1003.69
2016-10-01T06:54:18.069Z,1003.71
2016-10-01T06:54:58.610Z,1003.7
2016-10-01T06:55:39.134Z,1003.69
2016-10-01T06:56:19.669Z,1003.73
2016-10-01T06:57:00.256Z,1003.7
2016-10-01T06:57:40.779Z,1003.69
2016-10-01T06:58:21.329Z,1003.69
2016-10-01T06:59:01.836Z,1003.68
2016-10-01T06:59:42.594Z,1003.71
2016-10-01T07:00:23.278Z,1003.72
2016-10-01T07:01:03.921Z,1003.67
2016-10-01T07:01:44.638Z,1003.68
2016-10-01T07:02:25.435Z,1003.67
2016-10-01T07:03:06.247Z,1003.67
2016-10-01T07:03:46.773Z,1003.64
2016-10-01T07:04:27.307Z,1003.6
2016-10-01T07:05:07.802Z,1003.62
2016-10-01T07:05:48.328Z,1003.61
2016-10-01T07:06:28.827Z,1003.62
2016-10-01T07:07:09.339Z,1003.59
2016-10-01T07:07:49.851Z,1003.58
2016-10-01T07:08:30.392Z,1003.59
2016-10-01T07:09:10.859Z,1003.59
2016-10-01T07:09:51.361Z,1003.59
2016-10-01T07:10:31.975Z,1003.57
2016-10-01T07:11:12.447Z,1003.57
2016-10-01T07:11:52.952Z,1003.51
2016-10-01T07:12:33.449Z,1003.52
2016-10-01T07:13:13.935Z,1003.57
2016-10-01T07:13:54.451Z,1003.52
2016-10-01T07:14:34.970Z,1003.51
2016-10-01T07:15:15.518Z,1003.49
2016-10-01T07:15:56.040Z,1003.46
2016-10-01T07:16:36.588Z,1003.47
2016-10-01T07:17:17.036Z,1003.5
2016-10-01T07:17:57.586Z,1003.47
2016-10-01T07:18:38.069Z,1003.48
2016-10-01T07:19:18.656Z,1003.41
2016-10-01T07:19:59.156Z,1003.43
2016-10-01T07:20:39.689Z,1003.44
2016-10-01T07:21:20.251Z,1003.38
2016-10-01T07:22:00.736Z,1003.4
2016-10-01T07:22:41.292Z,1003.43
2016-10-01T07:23:21.791Z,1003.43
2016-10-01T07:24:02.290Z,1003.4
2016-10-01T07:24:42.844Z,1003.42
2016-10-01T07:25:23.379Z,1003.46
2016-10-01T07:26:03.904Z,1003.45
2016-10-01T07:26:44.449Z,1003.47
2016-10-01T07:27:24.978Z,1003.48
2016-10-01T07:28:05.499Z,1003.48
2016-10-01T07:28:46.018Z,1003.5
2016-10-01T07:29:26.533Z,1003.51
2016-10-01T07:30:06.994Z,1003.52
2016-10-01T07:30:47.530Z,1003.5
2016-10-01T07:31:28.069Z,1003.5
2016-10-01T07:32:08.576Z,1003.47
2016-10-01T07:32:49.154Z,1003.4
2016-10-01T07:33:29.648Z,1003.4
2016-10-01T07:34:10.151Z,1003.39
2016-10-01T07:34:50.676Z,1003.38
2016-10-01T07:35:31.195Z,1003.37
2016-10-01T07:36:11.667Z,1003.34
2016-10-01T07:36:52.184Z,1003.39
2016-10-01T07:37:32.682Z,1003.34
2016-10-01T07:38:13.310Z,1003.34
2016-10-01T07:38:53.710Z,1003.36
2016-10-01T07:39:34.285Z,1003.34
2016-10-01T07:40:14.809Z,1003.38
2016-10-01T07:40:55.311Z,1003.35
2016-10-01T07:41:35.828Z,1003.38
2016-10-01T07:42:16.353Z,1003.43
2016-10-01T07:42:57.253Z,1003.41
2016-10-01T07:43:38.835Z,1003.37
2016-10-01T07:44:19.334Z,1003.41
2016-10-01T07:44:59.845Z,1003.4
2016-10-01T07:45:40.344Z,1003.37
2016-10-01T07:46:20.876Z,1003.4
2016-10-01T07:47:01.428Z,1003.39
2016-10-01T07:47:43.733Z,1003.39
2016-10-01T07:48:23.569Z,1003.42
2016-10-01T07:49:04.092Z,1003.42
2016-10-01T07:49:44.635Z,1003.4
2016-10-01T07:50:25.154Z,1003.42
2016-10-01T07:51:05.699Z,1003.4
2016-10-01T07:51:47.077Z,1003.41
2016-10-01T07:52:27.389Z,1003.39
2016-10-01T07:53:07.926Z,1003.4
2016-10-01T07:53:48.457Z,1003.39
2016-10-01T07:54:28.975Z,1003.36
2016-10-01T07:55:09.571Z,1003.38
2016-10-01T07:55:50.089Z,1003.33
2016-10-01T07:56:30.765Z,1003.37
2016-10-01T07:57:11.274Z,1003.38
2016-10-01T07:57:51.779Z,1003.38
2016-10-01T07:58:32.292Z,1003.38
2016-10-01T07:59:12.799Z,1003.36
2016-10-01T07:59:54.706Z,1003.35
2016-10-01T08:00:35.191Z,1003.34
2016-10-01T08:01:15.699Z,1003.39
2016-10-01T08:01:56.225Z,1003.36
2016-10-01T08:02:36.767Z,1003.35
2016-10-01T08:03:17.331Z,1003.39
2016-10-01T08:03:57.888Z,1003.42
2016-10-01T08:04:38.398Z,1003.42
2016-10-01T08:05:18.923Z,1003.44
2016-10-01T08:05:59.417Z,1003.41
2016-10-01T08:06:39.922Z,1003.4
2016-10-01T08:07:20.466Z,1003.37
2016-10-01T08:08:00.991Z,1003.36
2016-10-01T08:08:41.513Z,1003.39
2016-10-01T08:09:22.034Z,1003.38
2016-10-01T08:10:02.695Z,1003.36
2016-10-01T08:10:43.263Z,1003.31
2016-10-01T08:11:23.718Z,1003.32
2016-10-01T08:12:04.271Z,1003.3
2016-10-01T08:12:44.735Z,1003.29
2016-10-01T08:13:25.260Z,1003.3
2016-10-01T08:14:05.803Z,1003.29
2016-10-01T08:14:46.323Z,1003.28
2016-10-01T08:15:26.913Z,1003.24
2016-10-01T08:16:07.497Z,1003.29
2016-10-01T08:16:48.019Z,1003.31
2016-10-01T08:17:28.557Z,1003.3
2016-10-01T08:18:09.085Z,1003.31
2016-10-01T08:18:49.618Z,1003.33
2016-10-01T08:19:30.177Z,1003.31
2016-10-01T08:20:10.700Z,1003.33
2016-10-01T08:20:51.269Z,1003.37
2016-10-01T08:21:31.818Z,1003.41
2016-10-01T08:22:12.303Z,1003.44
2016-10-01T08:22:52.889Z,1003.46
2016-10-01T08:23:33.457Z,1003.48
2016-10-01T08:24:13.997Z,1003.53